sensor_id;sensor_type;location;lat;lon;timestamp;pressure;altitude;pressure_sealevel;temperature;humidity
22872;BME280;11603;44.910;8.630;2023-05-12T00:01:25;100189.81;;;14.69;100.00
22872;BME280;11603;44.910;8.630;2023-05-12T00:03:51;100198.59;;;14.71;100.00
22872;BME280;11603;44.910;8.630;2023-05-12T00:06:18;100197.59;;;14.72;100.00
22872;BME280;11603;44.910;8.630;2023-05-12T00:08:44;100193.81;;;14.75;100.00
22872;BME280;11603;44.910;8.630;2023-05-12T00:11:09;100190.25;;;14.74;100.00
22872;BME280;11603;44.910;8.630;2023-05-12T00:13:35;100191.38;;;14.72;100.00
22872;BME280;11603;44.910;8.630;2023-05-12T00:16:01;100185.56;;;14.76;100.00
22872;BME280;11603;44.910;8.630;2023-05-12T00:18:27;100185.47;;;14.78;100.00
22872;BME280;11603;44.910;8.630;2023-05-12T00:20:53;100188.66;;;14.72;100.00
22872;BME280;11603;44.910;8.630;2023-05-12T00:23:19;100180.75;;;14.70;100.00
22872;BME280;11603;44.910;8.630;2023-05-12T00:25:45;100178.69;;;14.63;100.00
22872;BME280;11603;44.910;8.630;2023-05-12T00:28:10;100176.66;;;14.55;100.00
22872;BME280;11603;44.910;8.630;2023-05-12T00:30:36;100169.47;;;14.45;100.00
22872;BME280;11603;44.910;8.630;2023-05-12T00:33:02;100168.50;;;14.46;100.00
22872;BME280;11603;44.910;8.630;2023-05-12T00:35:27;100171.34;;;14.44;100.00
22872;BME280;11603;44.910;8.630;2023-05-12T00:37:53;100165.22;;;14.42;100.00
22872;BME280;11603;44.910;8.630;2023-05-12T00:40:18;100159.13;;;14.40;100.00
22872;BME280;11603;44.910;8.630;2023-05-12T00:42:44;100162.81;;;14.39;100.00
22872;BME280;11603;44.910;8.630;2023-05-12T00:45:10;100158.41;;;14.38;100.00
22872;BME280;11603;44.910;8.630;2023-05-12T00:47:35;100157.56;;;14.37;100.00
22872;BME280;11603;44.910;8.630;2023-05-12T00:50:03;100156.19;;;14.43;100.00
22872;BME280;11603;44.910;8.630;2023-05-12T00:52:29;100153.25;;;14.35;100.00
22872;BME280;11603;44.910;8.630;2023-05-12T00:54:56;100150.47;;;14.36;100.00
22872;BME280;11603;44.910;8.630;2023-05-12T00:57:24;100158.78;;;14.33;100.00
22872;BME280;11603;44.910;8.630;2023-05-12T00:59:50;100161.47;;;14.33;100.00
22872;BME280;11603;44.910;8.630;2023-05-12T01:02:15;100159.13;;;14.29;100.00
22872;BME280;11603;44.910;8.630;2023-05-12T01:04:41;100151.78;;;14.31;100.00
22872;BME280;11603;44.910;8.630;2023-05-12T01:07:23;100156.19;;;14.32;100.00
22872;BME280;11603;44.910;8.630;2023-05-12T01:09:55;100152.06;;;14.39;100.00
22872;BME280;11603;44.910;8.630;2023-05-12T01:12:22;100150.19;;;14.39;100.00
22872;BME280;11603;44.910;8.630;2023-05-12T01:14:49;100151.78;;;14.42;100.00
22872;BME280;11603;44.910;8.630;2023-05-12T01:17:30;100157.03;;;14.44;100.00
22872;BME280;11603;44.910;8.630;2023-05-12T01:19:59;100149.94;;;14.43;100.00
22872;BME280;11603;44.910;8.630;2023-05-12T01:22:28;100143.44;;;14.45;100.00
22872;BME280;11603;44.910;8.630;2023-05-12T01:25:01;100147.59;;;14.49;100.00
22872;BME280;11603;44.910;8.630;2023-05-12T01:27:29;100150.41;;;14.48;100.00
22872;BME280;11603;44.910;8.630;2023-05-12T01:30:01;100149.38;;;14.39;100.00
22872;BME280;11603;44.910;8.630;2023-05-12T01:32:31;100140.78;;;14.34;100.00
22872;BME280;11603;44.910;8.630;2023-05-12T01:34:57;100141.50;;;14.36;100.00
22872;BME280;11603;44.910;8.630;2023-05-12T01:37:23;100145.94;;;14.37;100.00
22872;BME280;11603;44.910;8.630;2023-05-12T01:39:53;100145.13;;;14.46;100.00
22872;BME280;11603;44.910;8.630;2023-05-12T01:42:19;100144.63;;;14.52;100.00
22872;BME280;11603;44.910;8.630;2023-05-12T01:44:46;100152.31;;;14.57;100.00
22872;BME280;11603;44.910;8.630;2023-05-12T01:47:11;100144.97;;;14.59;100.00
22872;BME280;11603;44.910;8.630;2023-05-12T01:49:39;100140.56;;;14.58;100.00
22872;BME280;11603;44.910;8.630;2023-05-12T01:52:09;100142.38;;;14.57;100.00
22872;BME280;11603;44.910;8.630;2023-05-12T01:54:34;100138.13;;;14.55;100.00
22872;BME280;11603;44.910;8.630;2023-05-12T01:57:00;100144.09;;;14.58;100.00
22872;BME280;11603;44.910;8.630;2023-05-12T01:59:26;100145.75;;;14.50;100.00
22872;BME280;11603;44.910;8.630;2023-05-12T02:01:53;100145.06;;;14.36;100.00
22872;BME280;11603;44.910;8.630;2023-05-12T02:04:25;100148.72;;;14.35;100.00
22872;BME280;11603;44.910;8.630;2023-05-12T02:06:51;100148.72;;;14.35;100.00
22872;BME280;11603;44.910;8.630;2023-05-12T02:09:17;100148.13;;;14.32;100.00
22872;BME280;11603;44.910;8.630;2023-05-12T02:11:43;100142.22;;;14.17;100.00
22872;BME280;11603;44.910;8.630;2023-05-12T02:14:08;100136.38;;;14.12;100.00
22872;BME280;11603;44.910;8.630;2023-05-12T02:16:33;100148.56;;;14.16;100.00
22872;BME280;11603;44.910;8.630;2023-05-12T02:18:59;100151.88;;;14.09;100.00
22872;BME280;11603;44.910;8.630;2023-05-12T02:21:24;100149.47;;;14.06;100.00
22872;BME280;11603;44.910;8.630;2023-05-12T02:23:52;100148.88;;;14.02;100.00
22872;BME280;11603;44.910;8.630;2023-05-12T02:26:17;100150.56;;;14.03;100.00
22872;BME280;11603;44.910;8.630;2023-05-12T02:28:44;100149.75;;;14.03;100.00
22872;BME280;11603;44.910;8.630;2023-05-12T02:31:09;100146.78;;;14.06;100.00
22872;BME280;11603;44.910;8.630;2023-05-12T02:33:35;100144.47;;;14.01;100.00
22872;BME280;11603;44.910;8.630;2023-05-12T02:36:01;100142.03;;;13.98;100.00
22872;BME280;11603;44.910;8.630;2023-05-12T02:38:27;100134.31;;;14.05;100.00
22872;BME280;11603;44.910;8.630;2023-05-12T02:40:54;100141.66;;;14.03;100.00
22872;BME280;11603;44.910;8.630;2023-05-12T02:43:20;100143.22;;;14.05;100.00
22872;BME280;11603;44.910;8.630;2023-05-12T02:45:45;100140.16;;;14.10;100.00
22872;BME280;11603;44.910;8.630;2023-05-12T02:48:11;100144.69;;;14.09;100.00
22872;BME280;11603;44.910;8.630;2023-05-12T02:50:36;100144.91;;;14.17;100.00
22872;BME280;11603;44.910;8.630;2023-05-12T02:53:02;100147.91;;;14.24;100.00
22872;BME280;11603;44.910;8.630;2023-05-12T02:55:28;100145.56;;;14.30;100.00
22872;BME280;11603;44.910;8.630;2023-05-12T02:57:55;100139.09;;;14.33;100.00
22872;BME280;11603;44.910;8.630;2023-05-12T03:00:20;100133.91;;;14.41;100.00
22872;BME280;11603;44.910;8.630;2023-05-12T03:02:46;100140.63;;;14.47;100.00
22872;BME280;11603;44.910;8.630;2023-05-12T03:05:12;100134.84;;;14.51;100.00
22872;BME280;11603;44.910;8.630;2023-05-12T03:07:37;100136.09;;;14.47;100.00
22872;BME280;11603;44.910;8.630;2023-05-12T03:10:04;100140.75;;;14.45;100.00
22872;BME280;11603;44.910;8.630;2023-05-12T03:12:30;100140.03;;;14.43;100.00
22872;BME280;11603;44.910;8.630;2023-05-12T03:14:56;100141.13;;;14.40;100.00
22872;BME280;11603;44.910;8.630;2023-05-12T03:17:22;100145.53;;;14.41;100.00
22872;BME280;11603;44.910;8.630;2023-05-12T03:19:48;100142.72;;;14.43;100.00
22872;BME280;11603;44.910;8.630;2023-05-12T03:22:15;100144.16;;;14.47;100.00
22872;BME280;11603;44.910;8.630;2023-05-12T03:24:41;100145.13;;;14.46;100.00
22872;BME280;11603;44.910;8.630;2023-05-12T03:27:07;100147.38;;;14.41;100.00
22872;BME280;11603;44.910;8.630;2023-05-12T03:29:33;100156.66;;;14.48;100.00
22872;BME280;11603;44.910;8.630;2023-05-12T03:31:58;100144.03;;;14.49;100.00
22872;BME280;11603;44.910;8.630;2023-05-12T03:34:23;100146.59;;;14.50;100.00
22872;BME280;11603;44.910;8.630;2023-05-12T03:36:49;100155.38;;;14.52;100.00
22872;BME280;11603;44.910;8.630;2023-05-12T03:39:15;100146.66;;;14.39;100.00
22872;BME280;11603;44.910;8.630;2023-05-12T03:41:41;100142.75;;;14.32;100.00
22872;BME280;11603;44.910;8.630;2023-05-12T03:44:06;100140.91;;;14.32;100.00
22872;BME280;11603;44.910;8.630;2023-05-12T03:46:33;100141.50;;;14.36;100.00
22872;BME280;11603;44.910;8.630;2023-05-12T03:48:59;100139.78;;;14.35;100.00
22872;BME280;11603;44.910;8.630;2023-05-12T03:51:25;100137.47;;;14.30;100.00
22872;BME280;11603;44.910;8.630;2023-05-12T03:53:52;100137.03;;;14.25;100.00
22872;BME280;11603;44.910;8.630;2023-05-12T03:56:18;100127.97;;;14.26;100.00
22872;BME280;11603;44.910;8.630;2023-05-12T03:58:44;100126.53;;;14.22;100.00
22872;BME280;11603;44.910;8.630;2023-05-12T04:01:12;100124.56;;;14.24;100.00
22872;BME280;11603;44.910;8.630;2023-05-12T04:03:37;100120.66;;;14.28;100.00
22872;BME280;11603;44.910;8.630;2023-05-12T04:06:07;100126.13;;;14.38;100.00
22872;BME280;11603;44.910;8.630;2023-05-12T04:08:32;100124.59;;;14.45;100.00
22872;BME280;11603;44.910;8.630;2023-05-12T04:10:59;100132.81;;;14.44;100.00
22872;BME280;11603;44.910;8.630;2023-05-12T04:13:27;100133.91;;;14.41;100.00
22872;BME280;11603;44.910;8.630;2023-05-12T04:15:56;100133.09;;;14.29;100.00
22872;BME280;11603;44.910;8.630;2023-05-12T04:18:23;100133.25;;;14.28;100.00
22872;BME280;11603;44.910;8.630;2023-05-12T04:20:48;100139.31;;;14.30;100.00
22872;BME280;11603;44.910;8.630;2023-05-12T04:23:14;100136.72;;;14.39;100.00
22872;BME280;11603;44.910;8.630;2023-05-12T04:25:43;100151.25;;;14.48;100.00
22872;BME280;11603;44.910;8.630;2023-05-12T04:28:09;100148.28;;;14.51;100.00
22872;BME280;11603;44.910;8.630;2023-05-12T04:30:37;100158.25;;;14.60;100.00
22872;BME280;11603;44.910;8.630;2023-05-12T04:33:03;100162.44;;;14.64;100.00
22872;BME280;11603;44.910;8.630;2023-05-12T04:35:29;100162.59;;;14.72;100.00
22872;BME280;11603;44.910;8.630;2023-05-12T04:37:55;100164.66;;;14.80;100.00
22872;BME280;11603;44.910;8.630;2023-05-12T04:40:20;100170.88;;;14.80;100.00
22872;BME280;11603;44.910;8.630;2023-05-12T04:42:46;100167.06;;;14.83;100.00
22872;BME280;11603;44.910;8.630;2023-05-12T04:45:13;100173.59;;;14.80;100.00
22872;BME280;11603;44.910;8.630;2023-05-12T04:47:39;100170.16;;;14.78;100.00
22872;BME280;11603;44.910;8.630;2023-05-12T04:50:05;100173.59;;;14.80;100.00
22872;BME280;11603;44.910;8.630;2023-05-12T04:52:31;100169.41;;;14.76;100.00
22872;BME280;11603;44.910;8.630;2023-05-12T04:54:56;100176.81;;;14.74;100.00
22872;BME280;11603;44.910;8.630;2023-05-12T04:57:22;100171.41;;;14.74;100.00
22872;BME280;11603;44.910;8.630;2023-05-12T04:59:48;100176.06;;;14.72;100.00
22872;BME280;11603;44.910;8.630;2023-05-12T05:02:13;100172.28;;;14.75;100.00
22872;BME280;11603;44.910;8.630;2023-05-12T05:04:39;100179.09;;;14.79;100.00
22872;BME280;11603;44.910;8.630;2023-05-12T05:07:05;100182.38;;;14.82;100.00
22872;BME280;11603;44.910;8.630;2023-05-12T05:09:31;100172.31;;;14.84;100.00
22872;BME280;11603;44.910;8.630;2023-05-12T05:11:56;100170.94;;;14.90;100.00
22872;BME280;11603;44.910;8.630;2023-05-12T05:14:22;100170.25;;;14.98;100.00
22872;BME280;11603;44.910;8.630;2023-05-12T05:16:48;100166.91;;;15.05;100.00
22872;BME280;11603;44.910;8.630;2023-05-12T05:19:14;100167.06;;;15.13;100.00
22872;BME280;11603;44.910;8.630;2023-05-12T05:21:40;100162.28;;;15.17;100.00
22872;BME280;11603;44.910;8.630;2023-05-12T05:24:05;100162.00;;;15.20;100.00
22872;BME280;11603;44.910;8.630;2023-05-12T05:26:32;100172.25;;;15.26;100.00
22872;BME280;11603;44.910;8.630;2023-05-12T05:28:57;100160.66;;;15.35;100.00
22872;BME280;11603;44.910;8.630;2023-05-12T05:31:24;100162.69;;;15.43;100.00
22872;BME280;11603;44.910;8.630;2023-05-12T05:33:50;100165.66;;;15.49;100.00
22872;BME280;11603;44.910;8.630;2023-05-12T05:36:15;100165.94;;;15.46;100.00
22872;BME280;11603;44.910;8.630;2023-05-12T05:38:41;100162.06;;;15.39;100.00
22872;BME280;11603;44.910;8.630;2023-05-12T05:41:07;100171.47;;;15.45;100.00
22872;BME280;11603;44.910;8.630;2023-05-12T05:43:33;100175.97;;;15.35;100.00
22872;BME280;11603;44.910;8.630;2023-05-12T05:45:59;100178.25;;;15.39;100.00
22872;BME280;11603;44.910;8.630;2023-05-12T05:48:25;100187.38;;;15.48;100.00
22872;BME280;11603;44.910;8.630;2023-05-12T05:50:52;100186.16;;;15.52;100.00
22872;BME280;11603;44.910;8.630;2023-05-12T05:53:20;100192.31;;;15.43;100.00
22872;BME280;11603;44.910;8.630;2023-05-12T05:55:46;100189.59;;;15.33;100.00
22872;BME280;11603;44.910;8.630;2023-05-12T05:58:13;100191.97;;;15.26;100.00
22872;BME280;11603;44.910;8.630;2023-05-12T06:00:44;100194.53;;;15.28;100.00
22872;BME280;11603;44.910;8.630;2023-05-12T06:03:10;100193.72;;;15.37;100.00
22872;BME280;11603;44.910;8.630;2023-05-12T06:05:36;100191.28;;;15.34;100.00
22872;BME280;11603;44.910;8.630;2023-05-12T06:08:01;100189.00;;;15.30;100.00
22872;BME280;11603;44.910;8.630;2023-05-12T06:10:30;100193.28;;;15.32;100.00
22872;BME280;11603;44.910;8.630;2023-05-12T06:12:55;100201.81;;;15.37;100.00
22872;BME280;11603;44.910;8.630;2023-05-12T06:15:21;100201.97;;;15.45;100.00
22872;BME280;11603;44.910;8.630;2023-05-12T06:17:48;100207.09;;;15.48;100.00
22872;BME280;11603;44.910;8.630;2023-05-12T06:20:13;100201.22;;;15.54;100.00
22872;BME280;11603;44.910;8.630;2023-05-12T06:22:39;100201.78;;;15.58;100.00
22872;BME280;11603;44.910;8.630;2023-05-12T06:25:07;100204.34;;;15.59;100.00
22872;BME280;11603;44.910;8.630;2023-05-12T06:27:33;100213.88;;;15.63;100.00
22872;BME280;11603;44.910;8.630;2023-05-12T06:29:58;100206.22;;;15.68;100.00
22872;BME280;11603;44.910;8.630;2023-05-12T06:32:24;100211.00;;;15.65;100.00
22872;BME280;11603;44.910;8.630;2023-05-12T06:34:50;100201.22;;;15.64;100.00
22872;BME280;11603;44.910;8.630;2023-05-12T06:37:16;100211.16;;;15.63;100.00
22872;BME280;11603;44.910;8.630;2023-05-12T06:39:41;100206.47;;;15.65;100.00
22872;BME280;11603;44.910;8.630;2023-05-12T06:42:06;100203.38;;;15.70;100.00
22872;BME280;11603;44.910;8.630;2023-05-12T06:44:39;100201.41;;;15.82;100.00
22872;BME280;11603;44.910;8.630;2023-05-12T06:47:05;100192.50;;;15.91;100.00
22872;BME280;11603;44.910;8.630;2023-05-12T06:49:30;100189.22;;;15.97;100.00
22872;BME280;11603;44.910;8.630;2023-05-12T06:51:56;100188.13;;;15.99;100.00
22872;BME280;11603;44.910;8.630;2023-05-12T06:54:22;100183.84;;;15.97;100.00
22872;BME280;11603;44.910;8.630;2023-05-12T06:56:47;100192.22;;;15.94;100.00
22872;BME280;11603;44.910;8.630;2023-05-12T06:59:13;100202.69;;;15.87;100.00
22872;BME280;11603;44.910;8.630;2023-05-12T07:01:38;100212.78;;;15.85;100.00
22872;BME280;11603;44.910;8.630;2023-05-12T07:04:05;100216.47;;;15.84;100.00
22872;BME280;11603;44.910;8.630;2023-05-12T07:06:31;100219.44;;;15.81;100.00
22872;BME280;11603;44.910;8.630;2023-05-12T07:08:58;100214.91;;;15.82;100.00
22872;BME280;11603;44.910;8.630;2023-05-12T07:11:24;100222.00;;;15.83;100.00
22872;BME280;11603;44.910;8.630;2023-05-12T07:13:49;100233.06;;;15.80;100.00
22872;BME280;11603;44.910;8.630;2023-05-12T07:16:16;100229.66;;;15.78;100.00
22872;BME280;11603;44.910;8.630;2023-05-12T07:18:42;100236.75;;;15.79;100.00
22872;BME280;11603;44.910;8.630;2023-05-12T07:21:08;100224.81;;;15.81;100.00
22872;BME280;11603;44.910;8.630;2023-05-12T07:23:34;100229.09;;;15.84;100.00
22872;BME280;11603;44.910;8.630;2023-05-12T07:26:01;100232.78;;;15.83;100.00
22872;BME280;11603;44.910;8.630;2023-05-12T07:28:28;100233.94;;;15.80;100.00
22872;BME280;11603;44.910;8.630;2023-05-12T07:30:57;100235.34;;;15.75;100.00
22872;BME280;11603;44.910;8.630;2023-05-12T07:33:23;100236.19;;;15.75;100.00
22872;BME280;11603;44.910;8.630;2023-05-12T07:35:49;100236.13;;;15.65;100.00
22872;BME280;11603;44.910;8.630;2023-05-12T07:38:14;100236.94;;;15.56;100.00
22872;BME280;11603;44.910;8.630;2023-05-12T07:40:40;100239.66;;;15.56;100.00
22872;BME280;11603;44.910;8.630;2023-05-12T07:43:05;100234.53;;;15.53;100.00
22872;BME280;11603;44.910;8.630;2023-05-12T07:45:31;100229.16;;;15.53;100.00
22872;BME280;11603;44.910;8.630;2023-05-12T07:47:56;100231.63;;;15.45;100.00
22872;BME280;11603;44.910;8.630;2023-05-12T07:50:22;100233.00;;;15.40;100.00
22872;BME280;11603;44.910;8.630;2023-05-12T07:52:51;100231.59;;;15.36;100.00
22872;BME280;11603;44.910;8.630;2023-05-12T07:55:18;100230.75;;;15.45;100.00
22872;BME280;11603;44.910;8.630;2023-05-12T07:57:43;100233.28;;;15.37;100.00
22872;BME280;11603;44.910;8.630;2023-05-12T08:00:09;100235.94;;;15.27;100.00
22872;BME280;11603;44.910;8.630;2023-05-12T08:02:41;100236.25;;;15.13;100.00
22872;BME280;11603;44.910;8.630;2023-05-12T08:05:08;100223.53;;;15.15;100.00
22872;BME280;11603;44.910;8.630;2023-05-12T08:07:35;100234.47;;;15.23;100.00
22872;BME280;11603;44.910;8.630;2023-05-12T08:10:02;100231.03;;;15.11;100.00
22872;BME280;11603;44.910;8.630;2023-05-12T08:12:28;100232.63;;;15.23;100.00
22872;BME280;11603;44.910;8.630;2023-05-12T08:14:53;100228.34;;;15.42;100.00
22872;BME280;11603;44.910;8.630;2023-05-12T08:17:19;100239.44;;;15.48;100.00
22872;BME280;11603;44.910;8.630;2023-05-12T08:19:45;100240.25;;;15.39;100.00
22872;BME280;11603;44.910;8.630;2023-05-12T08:22:11;100247.47;;;15.39;100.00
22872;BME280;11603;44.910;8.630;2023-05-12T08:24:36;100251.63;;;15.43;100.00
22872;BME280;11603;44.910;8.630;2023-05-12T08:27:02;100246.19;;;15.33;100.00
22872;BME280;11603;44.910;8.630;2023-05-12T08:29:28;100251.13;;;15.28;100.00
22872;BME280;11603;44.910;8.630;2023-05-12T08:31:54;100248.97;;;15.22;100.00
22872;BME280;11603;44.910;8.630;2023-05-12T08:34:23;100256.69;;;15.36;100.00
22872;BME280;11603;44.910;8.630;2023-05-12T08:36:48;100263.06;;;15.35;100.00
22872;BME280;11603;44.910;8.630;2023-05-12T08:39:14;100260.50;;;15.34;100.00
22872;BME280;11603;44.910;8.630;2023-05-12T08:44:10;100261.63;;;15.31;100.00
22872;BME280;11603;44.910;8.630;2023-05-12T08:46:35;100265.63;;;15.37;100.00
22872;BME280;11603;44.910;8.630;2023-05-12T08:49:02;100256.25;;;15.31;100.00
22872;BME280;11603;44.910;8.630;2023-05-12T08:51:30;100262.28;;;15.23;100.00
22872;BME280;11603;44.910;8.630;2023-05-12T08:53:56;100262.44;;;15.22;100.00
22872;BME280;11603;44.910;8.630;2023-05-12T08:56:22;100261.81;;;15.18;100.00
22872;BME280;11603;44.910;8.630;2023-05-12T08:58:48;100266.63;;;15.15;100.00
22872;BME280;11603;44.910;8.630;2023-05-12T09:01:16;100267.88;;;15.11;100.00
22872;BME280;11603;44.910;8.630;2023-05-12T09:03:43;100265.31;;;15.09;100.00
22872;BME280;11603;44.910;8.630;2023-05-12T09:06:09;100261.97;;;15.17;100.00
22872;BME280;11603;44.910;8.630;2023-05-12T09:08:36;100266.69;;;15.24;100.00
22872;BME280;11603;44.910;8.630;2023-05-12T09:11:02;100269.75;;;15.41;100.00
22872;BME280;11603;44.910;8.630;2023-05-12T09:13:37;100275.88;;;15.43;100.00
22872;BME280;11603;44.910;8.630;2023-05-12T09:16:07;100266.34;;;15.39;100.00
22872;BME280;11603;44.910;8.630;2023-05-12T09:18:56;100271.72;;;15.39;100.00
22872;BME280;11603;44.910;8.630;2023-05-12T09:21:22;100270.91;;;15.38;100.00
22872;BME280;11603;44.910;8.630;2023-05-12T09:23:57;100273.97;;;15.34;100.00
22872;BME280;11603;44.910;8.630;2023-05-12T09:26:25;100272.06;;;15.45;100.00
22872;BME280;11603;44.910;8.630;2023-05-12T09:28:52;100278.06;;;15.49;100.00
22872;BME280;11603;44.910;8.630;2023-05-12T09:31:20;100280.59;;;15.50;100.00
22872;BME280;11603;44.910;8.630;2023-05-12T09:33:47;100275.84;;;15.54;100.00
22872;BME280;11603;44.910;8.630;2023-05-12T09:36:20;100277.81;;;15.52;100.00
22872;BME280;11603;44.910;8.630;2023-05-12T09:39:00;100280.09;;;15.56;100.00
22872;BME280;11603;44.910;8.630;2023-05-12T09:41:29;100273.59;;;15.59;100.00
22872;BME280;11603;44.910;8.630;2023-05-12T09:43:55;100268.81;;;15.72;100.00
22872;BME280;11603;44.910;8.630;2023-05-12T09:46:22;100273.09;;;15.75;100.00
22872;BME280;11603;44.910;8.630;2023-05-12T09:48:48;100273.09;;;15.75;100.00
22872;BME280;11603;44.910;8.630;2023-05-12T09:51:16;100276.94;;;15.82;100.00
22872;BME280;11603;44.910;8.630;2023-05-12T09:53:43;100263.03;;;15.86;100.00
22872;BME280;11603;44.910;8.630;2023-05-12T09:56:14;100270.94;;;15.68;100.00
22872;BME280;11603;44.910;8.630;2023-05-12T09:58:46;100269.09;;;15.69;100.00
22872;BME280;11603;44.910;8.630;2023-05-12T10:01:14;100266.44;;;15.88;100.00
22872;BME280;11603;44.910;8.630;2023-05-12T10:03:44;100276.00;;;16.02;100.00
22872;BME280;11603;44.910;8.630;2023-05-12T10:06:15;100280.31;;;16.14;100.00
22872;BME280;11603;44.910;8.630;2023-05-12T10:11:18;100276.91;;;16.22;100.00
22872;BME280;11603;44.910;8.630;2023-05-12T10:13:44;100264.41;;;16.21;100.00
22872;BME280;11603;44.910;8.630;2023-05-12T10:16:09;100268.81;;;16.22;100.00
22872;BME280;11603;44.910;8.630;2023-05-12T10:18:35;100270.66;;;16.12;100.00
22872;BME280;11603;44.910;8.630;2023-05-12T10:21:02;100265.94;;;16.04;100.00
22872;BME280;11603;44.910;8.630;2023-05-12T10:23:27;100258.59;;;16.16;100.00
22872;BME280;11603;44.910;8.630;2023-05-12T10:25:54;100254.75;;;16.28;100.00
22872;BME280;11603;44.910;8.630;2023-05-12T10:28:28;100246.50;;;16.29;100.00
22872;BME280;11603;44.910;8.630;2023-05-12T10:30:55;100245.53;;;16.40;100.00
22872;BME280;11603;44.910;8.630;2023-05-12T10:33:20;100244.41;;;16.52;100.00
22872;BME280;11603;44.910;8.630;2023-05-12T10:35:47;100245.84;;;16.66;100.00
22872;BME280;11603;44.910;8.630;2023-05-12T10:38:14;100244.16;;;16.84;100.00
22872;BME280;11603;44.910;8.630;2023-05-12T10:41:00;100244.97;;;17.04;100.00
22872;BME280;11603;44.910;8.630;2023-05-12T10:43:37;100242.38;;;17.12;100.00
22872;BME280;11603;44.910;8.630;2023-05-12T10:48:32;100240.88;;;17.46;100.00
22872;BME280;11603;44.910;8.630;2023-05-12T10:51:08;100239.44;;;17.52;100.00
22872;BME280;11603;44.910;8.630;2023-05-12T10:53:34;100241.50;;;17.77;100.00
22872;BME280;11603;44.910;8.630;2023-05-12T10:56:04;100233.25;;;17.78;100.00
22872;BME280;11603;44.910;8.630;2023-05-12T10:58:30;100237.97;;;17.67;100.00
22872;BME280;11603;44.910;8.630;2023-05-12T11:01:04;100240.09;;;17.73;100.00
22872;BME280;11603;44.910;8.630;2023-05-12T11:03:29;100238.00;;;17.94;100.00
22872;BME280;11603;44.910;8.630;2023-05-12T11:05:59;100229.34;;;18.08;100.00
22872;BME280;11603;44.910;8.630;2023-05-12T11:08:25;100232.44;;;18.13;100.00
22872;BME280;11603;44.910;8.630;2023-05-12T11:10:52;100233.84;;;18.17;100.00
22872;BME280;11603;44.910;8.630;2023-05-12T11:13:17;100237.06;;;18.31;100.00
22872;BME280;11603;44.910;8.630;2023-05-12T11:15:44;100235.19;;;18.31;100.00
22872;BME280;11603;44.910;8.630;2023-05-12T11:18:09;100241.22;;;18.25;100.00
22872;BME280;11603;44.910;8.630;2023-05-12T11:20:37;100238.81;;;18.40;100.00
22872;BME280;11603;44.910;8.630;2023-05-12T11:23:03;100231.56;;;18.40;100.00
22872;BME280;11603;44.910;8.630;2023-05-12T11:25:28;100234.72;;;18.53;100.00
22872;BME280;11603;44.910;8.630;2023-05-12T11:27:54;100236.38;;;18.64;100.00
22872;BME280;11603;44.910;8.630;2023-05-12T11:30:20;100229.09;;;18.47;100.00
22872;BME280;11603;44.910;8.630;2023-05-12T11:32:45;100235.38;;;18.47;100.00
22872;BME280;11603;44.910;8.630;2023-05-12T11:35:16;100236.03;;;18.49;100.00
22872;BME280;11603;44.910;8.630;2023-05-12T11:37:43;100236.31;;;18.56;100.00
22872;BME280;11603;44.910;8.630;2023-05-12T11:40:20;100234.03;;;18.69;100.00
22872;BME280;11603;44.910;8.630;2023-05-12T11:42:47;100234.75;;;18.71;100.00
22872;BME280;11603;44.910;8.630;2023-05-12T11:47:50;100236.34;;;18.99;100.00
22872;BME280;11603;44.910;8.630;2023-05-12T11:50:23;100232.06;;;19.15;100.00
22872;BME280;11603;44.910;8.630;2023-05-12T11:52:49;100230.47;;;19.30;100.00
22872;BME280;11603;44.910;8.630;2023-05-12T11:55:20;100244.16;;;19.46;100.00
22872;BME280;11603;44.910;8.630;2023-05-12T11:58:00;100239.81;;;19.35;100.00
22872;BME280;11603;44.910;8.630;2023-05-12T12:00:34;100232.28;;;19.47;100.00
22872;BME280;11603;44.910;8.630;2023-05-12T12:03:11;100234.97;;;19.21;100.00
22872;BME280;11603;44.910;8.630;2023-05-12T12:05:38;100231.13;;;19.06;100.00
22872;BME280;11603;44.910;8.630;2023-05-12T12:08:10;100233.16;;;19.04;100.00
22872;BME280;11603;44.910;8.630;2023-05-12T12:10:38;100227.13;;;19.10;100.00
22872;BME280;11603;44.910;8.630;2023-05-12T12:13:03;100229.22;;;18.98;100.00
22872;BME280;11603;44.910;8.630;2023-05-12T12:15:29;100233.69;;;19.08;100.00
22872;BME280;11603;44.910;8.630;2023-05-12T12:17:55;100227.53;;;18.97;100.00
22872;BME280;11603;44.910;8.630;2023-05-12T12:20:20;100222.72;;;18.91;100.00
22872;BME280;11603;44.910;8.630;2023-05-12T12:22:49;100225.44;;;18.91;100.00
22872;BME280;11603;44.910;8.630;2023-05-12T12:25:14;100219.97;;;18.83;100.00
22872;BME280;11603;44.910;8.630;2023-05-12T12:27:40;100221.78;;;19.00;100.00
22872;BME280;11603;44.910;8.630;2023-05-12T12:30:06;100218.00;;;18.93;100.00
22872;BME280;11603;44.910;8.630;2023-05-12T12:32:32;100219.91;;;19.01;100.00
22872;BME280;11603;44.910;8.630;2023-05-12T12:34:58;100216.44;;;18.91;100.00
22872;BME280;11603;44.910;8.630;2023-05-12T12:37:25;100221.91;;;18.55;100.00
22872;BME280;11603;44.910;8.630;2023-05-12T12:39:51;100214.78;;;18.72;100.00
22872;BME280;11603;44.910;8.630;2023-05-12T12:42:16;100207.09;;;18.85;100.00
22872;BME280;11603;44.910;8.630;2023-05-12T12:44:42;100208.97;;;19.11;100.00
22872;BME280;11603;44.910;8.630;2023-05-12T12:47:08;100203.97;;;19.50;100.00
22872;BME280;11603;44.910;8.630;2023-05-12T12:49:33;100197.13;;;19.71;100.00